createdAt,value
2019-01-24T00:01:20.618Z,-0.79
2019-01-24T00:04:24.841Z,-0.82
2019-01-24T00:07:25.786Z,-0.72
2019-01-24T00:10:26.728Z,-0.88
2019-01-24T00:13:27.956Z,-0.98
2019-01-24T00:16:28.903Z,-0.70
2019-01-24T00:19:29.982Z,-0.71
2019-01-24T00:22:30.978Z,-0.60
2019-01-24T00:25:31.925Z,-0.71
2019-01-24T00:28:32.850Z,-0.84
2019-01-24T00:31:33.804Z,-0.85
2019-01-24T00:34:35.949Z,-0.56
2019-01-24T00:37:36.864Z,-0.49
2019-01-24T00:40:40.039Z,-0.48
2019-01-24T00:43:42.617Z,-0.31
2019-01-24T00:46:43.550Z,-0.55
2019-01-24T00:49:46.362Z,-0.82
2019-01-24T00:52:48.826Z,-0.93
2019-01-24T00:55:49.819Z,-0.95
2019-01-24T00:58:51.812Z,-0.99
2019-01-24T01:01:52.732Z,-0.77
2019-01-24T01:04:55.688Z,-0.78
2019-01-24T01:07:56.617Z,-0.79
2019-01-24T01:10:57.556Z,-0.59
2019-01-24T01:13:58.505Z,-0.60
2019-01-24T01:16:59.431Z,-1.02
2019-01-24T01:20:00.357Z,-0.70
2019-01-24T01:23:03.262Z,-0.82
2019-01-24T01:26:04.172Z,-0.55
2019-01-24T01:29:05.178Z,-0.58
2019-01-24T01:32:06.097Z,-0.57
2019-01-24T01:35:07.270Z,-0.60
2019-01-24T01:38:08.191Z,-0.44
2019-01-24T01:41:09.175Z,-0.69
2019-01-24T01:44:10.145Z,-0.72
2019-01-24T01:47:11.090Z,-0.58
2019-01-24T01:50:14.613Z,-0.39
2019-01-24T01:53:15.721Z,-0.93
2019-01-24T01:56:16.671Z,-1.03
2019-01-24T01:59:20.010Z,-0.87
2019-01-24T02:02:21.102Z,-1.09
2019-01-24T02:05:22.303Z,-0.93
2019-01-24T02:08:26.187Z,-1.02
2019-01-24T02:11:29.983Z,-0.90
2019-01-24T02:14:31.282Z,-0.81
2019-01-24T02:17:32.191Z,-0.90
2019-01-24T02:20:33.117Z,-0.77
2019-01-24T02:23:34.321Z,-0.72
2019-01-24T02:26:39.496Z,-0.87
2019-01-24T02:29:42.307Z,-0.88
2019-01-24T02:32:43.243Z,-0.86
2019-01-24T02:35:44.179Z,-1.09
2019-01-24T02:38:45.146Z,-0.91
2019-01-24T02:41:54.580Z,-0.84
2019-01-24T02:44:55.521Z,-1.06
2019-01-24T02:47:56.437Z,-0.82
2019-01-24T02:50:57.494Z,-0.81
2019-01-24T02:53:58.487Z,-0.90
2019-01-24T02:56:59.527Z,-0.91
2019-01-24T03:00:00.444Z,-0.83
2019-01-24T03:03:01.702Z,-0.93
2019-01-24T03:06:02.616Z,-0.79
2019-01-24T03:09:04.863Z,-0.88
2019-01-24T03:12:05.887Z,-1.27
2019-01-24T03:15:09.938Z,-1.01
2019-01-24T03:18:10.883Z,-0.96
2019-01-24T03:21:11.800Z,-0.88
2019-01-24T03:24:12.850Z,-1.05
2019-01-24T03:27:17.655Z,-1.11
2019-01-24T03:30:20.414Z,-1.23
2019-01-24T03:33:21.606Z,-1.04
2019-01-24T03:36:22.537Z,-0.83
2019-01-24T03:39:23.451Z,-0.87
2019-01-24T03:42:26.625Z,-0.59
2019-01-24T03:45:27.528Z,-0.86
2019-01-24T03:48:28.483Z,-0.94
2019-01-24T03:51:29.419Z,-0.89
2019-01-24T03:54:33.136Z,-0.87
2019-01-24T03:57:34.031Z,-0.72
2019-01-24T04:00:34.970Z,-0.62
2019-01-24T04:03:38.351Z,-0.95
2019-01-24T04:06:41.504Z,-0.79
2019-01-24T04:09:42.429Z,-0.86
2019-01-24T04:12:43.601Z,-1.03
2019-01-24T04:15:46.434Z,-1.19
2019-01-24T04:18:47.362Z,-1.18
2019-01-24T04:21:48.281Z,-0.78
2019-01-24T04:24:50.749Z,-1.13
2019-01-24T04:27:51.665Z,-0.84
2019-01-24T04:30:52.602Z,-0.92
2019-01-24T04:33:53.637Z,-0.87
2019-01-24T04:36:54.563Z,-1.02
2019-01-24T04:39:55.501Z,-1.01
2019-01-24T04:42:57.918Z,-1.19
2019-01-24T04:45:58.863Z,-1.15
2019-01-24T04:48:59.804Z,-1.26
2019-01-24T04:52:00.760Z,-1.11
2019-01-24T04:55:04.109Z,-0.96
2019-01-24T04:58:05.067Z,-1.00
2019-01-24T05:01:05.966Z,-0.97
2019-01-24T05:04:07.042Z,-0.74
2019-01-24T05:07:07.987Z,-0.78
2019-01-24T05:10:08.927Z,-1.07
2019-01-24T05:13:10.105Z,-0.98
2019-01-24T05:16:11.150Z,-0.88
2019-01-24T05:19:12.095Z,-1.12
2019-01-24T05:22:13.028Z,-1.28
2019-01-24T05:25:15.610Z,-1.20
2019-01-24T05:28:16.585Z,-1.00
2019-01-24T05:31:20.169Z,-0.99
2019-01-24T05:34:21.367Z,-1.14
2019-01-24T05:37:24.535Z,-1.02
2019-01-24T05:40:25.461Z,-1.00
2019-01-24T05:43:28.500Z,-1.02
2019-01-24T05:46:29.431Z,-0.97
2019-01-24T05:49:30.337Z,-1.11
2019-01-24T05:52:31.308Z,-1.21
2019-01-24T05:55:32.324Z,-1.03
2019-01-24T05:58:33.280Z,-1.07
2019-01-24T06:01:35.315Z,-0.94
2019-01-24T06:04:38.515Z,-0.82
2019-01-24T06:07:39.427Z,-1.02
2019-01-24T06:10:40.385Z,-0.88
2019-01-24T06:13:41.563Z,-0.85
2019-01-24T06:16:42.496Z,-0.98
2019-01-24T06:19:43.417Z,-1.01
2019-01-24T06:22:44.422Z,-1.02
2019-01-24T06:25:48.339Z,-0.88
2019-01-24T06:28:49.542Z,-1.28
2019-01-24T06:31:50.464Z,-1.06
2019-01-24T06:34:51.617Z,-1.06
2019-01-24T06:37:57.338Z,-1.12
2019-01-24T06:40:58.294Z,-1.05
2019-01-24T06:44:00.290Z,-1.05
2019-01-24T06:47:01.513Z,-1.09
2019-01-24T06:50:05.842Z,-1.09
2019-01-24T06:53:08.619Z,-0.93
2019-01-24T06:56:09.557Z,-1.11
2019-01-24T06:59:10.481Z,-1.10
2019-01-24T07:02:11.412Z,-1.28
2019-01-24T07:05:15.585Z,-1.27
2019-01-24T07:08:17.627Z,-1.13
2019-01-24T07:11:19.423Z,-1.15
2019-01-24T07:14:22.650Z,-1.16
2019-01-24T07:17:23.589Z,-1.16
2019-01-24T07:20:27.726Z,-1.33
2019-01-24T07:23:30.455Z,-1.17
2019-01-24T07:26:32.927Z,-1.20
2019-01-24T07:29:37.675Z,-0.91
2019-01-24T07:32:38.654Z,-1.11
2019-01-24T07:35:40.736Z,-0.91
2019-01-24T07:38:41.635Z,-0.69
2019-01-24T07:41:42.726Z,-0.90
2019-01-24T07:44:45.545Z,-0.75
2019-01-24T07:47:46.610Z,-1.14
2019-01-24T07:50:47.541Z,-0.89
2019-01-24T07:53:52.778Z,-1.04
2019-01-24T07:56:54.716Z,-1.19
2019-01-24T07:59:56.953Z,-1.11
2019-01-24T08:03:00.290Z,-1.13
2019-01-24T08:06:01.335Z,-1.26
2019-01-24T08:09:07.116Z,-0.88
2019-01-24T08:12:08.087Z,-0.99
2019-01-24T08:15:11.300Z,-0.62
2019-01-24T08:18:12.231Z,-0.67
2019-01-24T08:21:13.186Z,-0.75
2019-01-24T08:24:16.252Z,-0.62
2019-01-24T08:27:17.478Z,-0.55
2019-01-24T08:30:20.610Z,-1.23
2019-01-24T08:33:23.692Z,-0.70
2019-01-24T08:36:24.636Z,-0.70
2019-01-24T08:39:25.802Z,-0.89
2019-01-24T08:42:28.756Z,-0.77
2019-01-24T08:45:29.829Z,-0.91
2019-01-24T08:48:30.845Z,-1.07
2019-01-24T08:51:31.858Z,-0.46
2019-01-24T08:54:32.993Z,-1.01
2019-01-24T08:57:36.491Z,-1.24
2019-01-24T09:00:37.418Z,-1.12
2019-01-24T09:03:38.560Z,-0.76
2019-01-24T09:06:39.557Z,-0.70
2019-01-24T09:09:40.480Z,-0.76
2019-01-24T09:12:41.449Z,-0.65
2019-01-24T09:15:42.423Z,-0.93
2019-01-24T09:18:43.478Z,-0.93
2019-01-24T09:21:44.439Z,-1.07
2019-01-24T09:27:08.797Z,-0.72
2019-01-24T09:30:16.295Z,-0.50
2019-01-24T09:33:18.428Z,-0.58
2019-01-24T09:36:20.422Z,-0.33
2019-01-24T09:39:22.412Z,-0.67
2019-01-24T09:42:24.449Z,-0.25
2019-01-24T09:45:27.918Z,-0.13
2019-01-24T09:48:29.936Z,-0.36
2019-01-24T09:51:31.969Z,-0.54
2019-01-24T09:54:34.171Z,-0.42
2019-01-24T09:57:37.296Z,0.06
2019-01-24T10:00:39.286Z,-0.27
2019-01-24T10:03:41.713Z,-0.27
2019-01-24T10:06:43.729Z,-0.40
2019-01-24T10:09:45.970Z,-0.17
2019-01-24T10:12:48.257Z,0.21
2019-01-24T10:15:50.346Z,-0.14
2019-01-24T10:18:52.766Z,-0.10
2019-01-24T10:21:54.810Z,-0.18
2019-01-24T10:24:59.294Z,0.03
2019-01-24T10:28:01.332Z,-0.27
2019-01-24T10:31:03.337Z,-0.02
2019-01-24T10:34:08.381Z,0.12
2019-01-24T10:37:10.387Z,-0.15
2019-01-24T10:40:15.463Z,0.26
2019-01-24T10:43:17.555Z,0.02
2019-01-24T10:46:19.562Z,0.02
2019-01-24T10:49:21.550Z,0.34
2019-01-24T10:52:24.811Z,0.22
2019-01-24T10:55:31.542Z,0.10
2019-01-24T10:58:38.494Z,0.39
2019-01-24T11:01:42.999Z,0.33
2019-01-24T11:04:45.360Z,0.25
2019-01-24T11:07:47.419Z,0.41
2019-01-24T11:10:49.563Z,0.44
2019-01-24T11:13:52.871Z,0.35
2019-01-24T11:16:54.863Z,0.37
2019-01-24T11:19:56.841Z,0.64
2019-01-24T11:23:00.208Z,0.36
2019-01-24T11:26:02.303Z,1.16
2019-01-24T11:29:04.663Z,0.52
2019-01-24T11:32:07.890Z,0.62
2019-01-24T11:35:12.071Z,0.74
2019-01-24T11:38:14.072Z,0.60
2019-01-24T11:41:16.163Z,-0.01
2019-01-24T11:44:18.476Z,0.26
2019-01-24T11:47:20.653Z,0.35
2019-01-24T11:50:22.659Z,0.40
2019-01-24T11:53:25.010Z,0.53
2019-01-24T11:56:27.099Z,0.56
2019-01-24T11:59:30.346Z,0.84
2019-01-24T12:02:39.646Z,0.77
2019-01-24T12:05:38.099Z,0.67
2019-01-24T12:08:40.143Z,0.75
2019-01-24T12:11:42.162Z,0.43
2019-01-24T12:14:45.531Z,0.53
2019-01-24T12:17:47.528Z,0.41
2019-01-24T12:20:49.523Z,0.75
2019-01-24T12:23:51.646Z,0.40
2019-01-24T12:26:54.856Z,1.00
2019-01-24T12:29:56.857Z,0.92
2019-01-24T12:32:59.456Z,0.63
2019-01-24T12:36:01.554Z,0.46
2019-01-24T12:39:09.298Z,0.71
2019-01-24T12:42:11.312Z,0.78
2019-01-24T12:45:22.769Z,0.84
2019-01-24T12:48:24.866Z,0.95
2019-01-24T12:51:28.102Z,0.88
2019-01-24T12:54:30.642Z,1.11
2019-01-24T12:57:32.633Z,0.45
2019-01-24T13:00:37.638Z,0.28
2019-01-24T13:03:39.833Z,0.37
2019-01-24T13:06:44.332Z,-0.01
2019-01-24T13:09:46.337Z,-0.06
2019-01-24T13:12:48.333Z,0.09
2019-01-24T13:15:52.088Z,0.12
2019-01-24T13:18:54.114Z,-0.07
2019-01-24T13:21:56.146Z,-0.07
2019-01-24T13:24:58.414Z,-0.06
2019-01-24T13:28:00.540Z,0.18
2019-01-24T13:31:02.623Z,0.50
2019-01-24T13:34:06.062Z,0.44
2019-01-24T13:37:08.248Z,0.14
2019-01-24T13:40:12.356Z,-0.01
2019-01-24T13:43:14.548Z,-0.05
2019-01-24T13:46:19.589Z,0.09
2019-01-24T13:49:21.618Z,0.12
2019-01-24T13:52:23.624Z,-0.07
2019-01-24T13:55:25.943Z,0.04
2019-01-24T13:58:27.946Z,0.13
2019-01-24T14:01:32.225Z,0.41
2019-01-24T14:04:39.014Z,0.37
2019-01-24T14:07:41.016Z,0.44
2019-01-24T14:10:44.539Z,0.35
2019-01-24T14:13:46.695Z,0.34
2019-01-24T14:16:48.736Z,0.37
2019-01-24T14:19:53.036Z,0.13
2019-01-24T14:22:58.266Z,0.22
2019-01-24T14:26:00.307Z,0.45
2019-01-24T14:29:05.381Z,0.63
2019-01-24T14:32:07.472Z,0.29
2019-01-24T14:35:11.446Z,0.42
2019-01-24T14:38:14.375Z,0.39
2019-01-24T14:41:20.887Z,0.13
2019-01-24T14:44:23.145Z,-0.16
2019-01-24T14:47:25.254Z,0.19
2019-01-24T14:50:29.391Z,0.08
2019-01-24T14:53:31.480Z,-0.11
2019-01-24T14:56:33.542Z,0.01
2019-01-24T14:59:35.621Z,-0.16
2019-01-24T15:02:37.742Z,-0.21
2019-01-24T15:05:39.747Z,0.02
2019-01-24T15:08:41.762Z,0.09
2019-01-24T15:11:43.800Z,-0.17
2019-01-24T15:14:46.071Z,-0.47
2019-01-24T15:17:48.067Z,-0.76
2019-01-24T15:20:50.142Z,-0.65
2019-01-24T15:23:52.335Z,-0.63
2019-01-24T15:26:57.229Z,-0.42
2019-01-24T15:29:59.252Z,-0.65
2019-01-24T15:33:01.574Z,-0.64
2019-01-24T15:36:03.666Z,-0.62
2019-01-24T15:39:06.844Z,-0.23
2019-01-24T15:42:08.894Z,-0.16
2019-01-24T15:45:11.263Z,-0.17
2019-01-24T15:48:13.257Z,-0.06
2019-01-24T15:51:16.601Z,-0.13
2019-01-24T15:54:19.182Z,-0.21
2019-01-24T15:57:23.679Z,-0.46
2019-01-24T16:00:27.669Z,-0.47
2019-01-24T16:03:29.731Z,-0.36
2019-01-24T16:06:31.764Z,-0.43
2019-01-24T16:09:33.795Z,-0.51
2019-01-24T16:12:35.802Z,-0.48
2019-01-24T16:15:38.129Z,-0.37
2019-01-24T16:18:40.191Z,-0.67
2019-01-24T16:21:42.196Z,-0.60
2019-01-24T16:24:44.274Z,-0.63
2019-01-24T16:27:46.349Z,-0.76
2019-01-24T16:30:48.460Z,-0.58
2019-01-24T16:33:52.326Z,-0.54
2019-01-24T16:36:57.117Z,-0.66
2019-01-24T16:39:59.157Z,-0.60
2019-01-24T16:43:01.313Z,-0.73
2019-01-24T16:46:03.732Z,-0.82
2019-01-24T16:49:05.744Z,-0.80
2019-01-24T16:52:07.889Z,-0.80
2019-01-24T16:55:11.355Z,-0.63
2019-01-24T16:58:13.561Z,-0.71
2019-01-24T17:01:18.070Z,-0.75
2019-01-24T17:04:20.322Z,-0.89
2019-01-24T17:07:22.348Z,-0.66
2019-01-24T17:10:24.417Z,-0.72
2019-01-24T17:13:27.877Z,-0.68
2019-01-24T17:16:29.907Z,-0.72
2019-01-24T17:19:34.376Z,-0.50
2019-01-24T17:22:36.411Z,-0.28
2019-01-24T17:25:38.474Z,-0.51
2019-01-24T17:28:40.609Z,-0.43
2019-01-24T17:31:45.340Z,-0.64
2019-01-24T17:34:47.455Z,-0.70
2019-01-24T17:37:52.203Z,-0.64
2019-01-24T17:40:54.211Z,-0.67
2019-01-24T17:43:57.714Z,-0.53
2019-01-24T17:46:59.771Z,-0.71
2019-01-24T17:50:01.777Z,-0.93
2019-01-24T17:53:03.925Z,-0.67
2019-01-24T17:56:05.972Z,-0.96
2019-01-24T17:59:07.923Z,-0.68
2019-01-24T18:02:10.998Z,-1.07
2019-01-24T18:05:13.247Z,-0.71
2019-01-24T18:08:15.490Z,-0.80
2019-01-24T18:11:19.344Z,-0.99
2019-01-24T18:14:21.564Z,-1.00
2019-01-24T18:17:26.338Z,-1.09
2019-01-24T18:20:30.195Z,-0.76
2019-01-24T18:23:32.370Z,-0.68
2019-01-24T18:26:34.377Z,-0.51
2019-01-24T18:29:36.429Z,-0.78
2019-01-24T18:32:38.544Z,-0.72
2019-01-24T18:35:40.693Z,-0.82
2019-01-24T18:38:42.754Z,-1.05
2019-01-24T18:41:44.739Z,-0.90
2019-01-24T18:44:48.179Z,-0.87
2019-01-24T18:47:51.402Z,-0.46
2019-01-24T18:50:53.444Z,-0.74
2019-01-24T18:53:56.561Z,-0.63
2019-01-24T18:56:58.580Z,-0.86
2019-01-24T19:00:00.719Z,-0.87
2019-01-24T19:03:03.290Z,-0.96
2019-01-24T19:06:05.299Z,-1.10
2019-01-24T19:09:08.048Z,-0.87
2019-01-24T19:12:10.075Z,-0.64
2019-01-24T19:15:14.329Z,-0.89
2019-01-24T19:18:18.181Z,-0.97
2019-01-24T19:21:27.370Z,-1.04
2019-01-24T19:24:29.917Z,-1.06
2019-01-24T19:27:36.911Z,-1.00
2019-01-24T19:30:38.991Z,-0.93
2019-01-24T19:33:42.735Z,-1.11
2019-01-24T19:36:47.085Z,-1.04
2019-01-24T19:39:49.095Z,-1.27
2019-01-24T19:42:51.286Z,-1.24
2019-01-24T19:45:53.265Z,-1.14
2019-01-24T19:48:55.280Z,-1.13
2019-01-24T19:51:57.277Z,-0.99
2019-01-24T19:54:59.702Z,-0.96
2019-01-24T19:58:01.693Z,-1.03
2019-01-24T20:01:03.787Z,-0.99
2019-01-24T20:04:06.171Z,-1.35
2019-01-24T20:07:08.184Z,-1.08
2019-01-24T20:10:12.419Z,-1.06
2019-01-24T20:13:14.512Z,-0.94
2019-01-24T20:16:20.433Z,-0.38
2019-01-24T20:19:22.491Z,-0.83
2019-01-24T20:22:27.457Z,-0.79
2019-01-24T20:25:30.561Z,-1.03
2019-01-24T20:28:32.677Z,-0.86
2019-01-24T20:31:34.648Z,-0.83
2019-01-24T20:34:36.759Z,-1.12
2019-01-24T20:37:41.041Z,-1.13
2019-01-24T20:40:45.794Z,-1.10
2019-01-24T20:43:47.906Z,-1.17
2019-01-24T20:46:49.931Z,-1.28
2019-01-24T20:49:52.070Z,-1.25
2019-01-24T20:52:57.460Z,-1.17
2019-01-24T20:55:59.532Z,-1.02
2019-01-24T20:59:07.715Z,-1.09
2019-01-24T21:02:09.796Z,-1.28
2019-01-24T21:05:12.908Z,-1.18
2019-01-24T21:08:17.489Z,-0.94
2019-01-24T21:11:19.511Z,-1.28
2019-01-24T21:14:22.856Z,-1.12
2019-01-24T21:17:24.905Z,-1.01
2019-01-24T21:20:29.723Z,-1.16
2019-01-24T21:23:31.800Z,-1.31
2019-01-24T21:26:33.871Z,-1.19
2019-01-24T21:29:35.906Z,-1.16
2019-01-24T21:32:38.423Z,-1.38
2019-01-24T21:35:40.455Z,-1.34
2019-01-24T21:38:42.521Z,-1.09
2019-01-24T21:41:44.847Z,-1.26
2019-01-24T21:44:47.019Z,-1.43
2019-01-24T21:47:49.130Z,-1.17
2019-01-24T21:50:51.293Z,-1.23
2019-01-24T21:53:54.702Z,-1.30
2019-01-24T21:56:56.755Z,-1.21
2019-01-24T21:59:58.777Z,-1.30
2019-01-24T22:03:01.092Z,-1.21
2019-01-24T22:06:03.113Z,-1.43
2019-01-24T22:09:07.726Z,-1.65
2019-01-24T22:12:09.829Z,-1.44
2019-01-24T22:15:14.404Z,-1.52
2019-01-24T22:18:16.451Z,-1.26
2019-01-24T22:21:18.578Z,-1.45
2019-01-24T22:24:20.956Z,-1.53
2019-01-24T22:27:23.071Z,-1.35
2019-01-24T22:30:34.403Z,-1.50
2019-01-24T22:33:36.659Z,-1.24
2019-01-24T22:36:38.701Z,-1.07
2019-01-24T22:39:41.100Z,-1.32
2019-01-24T22:42:43.247Z,-1.61
2019-01-24T22:45:45.322Z,-1.24
2019-01-24T22:48:49.974Z,-1.42
2019-01-24T22:51:54.650Z,-1.49
2019-01-24T22:54:56.882Z,-1.42
2019-01-24T22:57:58.946Z,-1.61
2019-01-24T23:01:48.811Z,-1.53
2019-01-24T23:04:51.253Z,-1.28
2019-01-24T23:07:53.275Z,-1.56
2019-01-24T23:10:55.324Z,-1.61
2019-01-24T23:13:57.537Z,-1.41
2019-01-24T23:16:59.565Z,-1.53
2019-01-24T23:20:01.584Z,-1.55
2019-01-24T23:23:04.172Z,-1.35
2019-01-24T23:26:06.188Z,-1.37
2019-01-24T23:29:08.232Z,-1.58
2019-01-24T23:32:10.295Z,-1.42
2019-01-24T23:35:12.337Z,-1.54
2019-01-24T23:38:14.376Z,-1.40
2019-01-24T23:41:16.389Z,-1.58
2019-01-24T23:44:20.599Z,-1.60
2019-01-24T23:47:24.203Z,-1.52
2019-01-24T23:50:28.828Z,-1.36
2019-01-24T23:53:32.720Z,-1.62
2019-01-24T23:56:39.408Z,-1.50
2019-01-24T23:59:41.508Z,-1.79
